sensor_id;sensor_type;location;lat;lon;timestamp;temperature;humidity
28532;DHT22;15738;44.860;10.066;2023-04-01T00:01:46;12.70;99.90
28532;DHT22;15738;44.860;10.066;2023-04-01T00:04:31;12.60;99.90
28532;DHT22;15738;44.860;10.066;2023-04-01T00:07:17;12.60;99.90
28532;DHT22;15738;44.860;10.066;2023-04-01T00:10:06;12.60;99.90
28532;DHT22;15738;44.860;10.066;2023-04-01T00:12:52;12.60;99.90
28532;DHT22;15738;44.860;10.066;2023-04-01T00:15:39;12.60;99.90
28532;DHT22;15738;44.860;10.066;2023-04-01T00:18:24;12.60;99.90
28532;DHT22;15738;44.860;10.066;2023-04-01T00:21:10;12.60;99.90
28532;DHT22;15738;44.860;10.066;2023-04-01T00:23:56;12.50;99.90
28532;DHT22;15738;44.860;10.066;2023-04-01T00:26:42;12.50;99.90
28532;DHT22;15738;44.860;10.066;2023-04-01T00:29:30;12.50;99.90
28532;DHT22;15738;44.860;10.066;2023-04-01T00:32:16;12.40;99.90
28532;DHT22;15738;44.860;10.066;2023-04-01T00:35:02;12.40;99.90
28532;DHT22;15738;44.860;10.066;2023-04-01T00:37:48;12.30;99.90
28532;DHT22;15738;44.860;10.066;2023-04-01T00:40:35;12.30;99.90
28532;DHT22;15738;44.860;10.066;2023-04-01T00:43:21;12.20;99.90
28532;DHT22;15738;44.860;10.066;2023-04-01T00:46:07;12.20;99.90
28532;DHT22;15738;44.860;10.066;2023-04-01T00:48:53;12.10;99.90
28532;DHT22;15738;44.860;10.066;2023-04-01T00:51:40;12.00;99.90
28532;DHT22;15738;44.860;10.066;2023-04-01T00:54:27;12.00;99.90
28532;DHT22;15738;44.860;10.066;2023-04-01T00:57:21;12.00;99.90
28532;DHT22;15738;44.860;10.066;2023-04-01T01:00:10;12.00;99.90
28532;DHT22;15738;44.860;10.066;2023-04-01T01:02:56;12.00;99.90
28532;DHT22;15738;44.860;10.066;2023-04-01T01:11:26;11.90;99.90
28532;DHT22;15738;44.860;10.066;2023-04-01T01:29:31;12.00;99.90
28532;DHT22;15738;44.860;10.066;2023-04-01T01:35:22;12.10;99.90
28532;DHT22;15738;44.860;10.066;2023-04-01T01:38:10;12.20;99.90
28532;DHT22;15738;44.860;10.066;2023-04-01T01:41:00;13.10;99.90
28532;DHT22;15738;44.860;10.066;2023-04-01T01:43:47;12.30;99.90
28532;DHT22;15738;44.860;10.066;2023-04-01T01:46:35;12.40;99.90
28532;DHT22;15738;44.860;10.066;2023-04-01T01:49:21;12.60;99.90
28532;DHT22;15738;44.860;10.066;2023-04-01T01:52:07;12.60;99.90
28532;DHT22;15738;44.860;10.066;2023-04-01T01:54:54;12.70;99.90
28532;DHT22;15738;44.860;10.066;2023-04-01T01:57:43;12.70;99.90
28532;DHT22;15738;44.860;10.066;2023-04-01T02:00:34;12.70;99.90
28532;DHT22;15738;44.860;10.066;2023-04-01T02:03:21;12.70;99.90
28532;DHT22;15738;44.860;10.066;2023-04-01T02:06:10;12.80;99.90
28532;DHT22;15738;44.860;10.066;2023-04-01T02:09:03;12.70;99.90
28532;DHT22;15738;44.860;10.066;2023-04-01T02:11:51;12.60;99.90
28532;DHT22;15738;44.860;10.066;2023-04-01T02:14:50;12.60;99.90
28532;DHT22;15738;44.860;10.066;2023-04-01T02:17:38;12.60;99.90
28532;DHT22;15738;44.860;10.066;2023-04-01T02:20:25;12.60;99.90
28532;DHT22;15738;44.860;10.066;2023-04-01T02:23:12;12.50;99.90
28532;DHT22;15738;44.860;10.066;2023-04-01T02:25:58;12.40;99.90
28532;DHT22;15738;44.860;10.066;2023-04-01T02:28:45;12.30;99.90
28532;DHT22;15738;44.860;10.066;2023-04-01T02:31:33;12.20;99.90
28532;DHT22;15738;44.860;10.066;2023-04-01T02:34:20;12.00;99.90
28532;DHT22;15738;44.860;10.066;2023-04-01T02:37:07;12.00;99.90
28532;DHT22;15738;44.860;10.066;2023-04-01T02:39:52;11.90;99.90
28532;DHT22;15738;44.860;10.066;2023-04-01T02:42:38;11.70;99.90
28532;DHT22;15738;44.860;10.066;2023-04-01T02:45:24;11.40;99.90
28532;DHT22;15738;44.860;10.066;2023-04-01T02:48:10;11.10;99.90
28532;DHT22;15738;44.860;10.066;2023-04-01T02:50:56;10.80;99.90
28532;DHT22;15738;44.860;10.066;2023-04-01T02:53:42;10.40;99.90
28532;DHT22;15738;44.860;10.066;2023-04-01T02:56:28;10.30;99.90
28532;DHT22;15738;44.860;10.066;2023-04-01T02:59:13;10.20;99.90
28532;DHT22;15738;44.860;10.066;2023-04-01T03:01:59;10.10;99.90
28532;DHT22;15738;44.860;10.066;2023-04-01T03:04:45;10.10;99.90
28532;DHT22;15738;44.860;10.066;2023-04-01T03:07:31;9.90;99.90
28532;DHT22;15738;44.860;10.066;2023-04-01T03:10:16;10.00;99.90
28532;DHT22;15738;44.860;10.066;2023-04-01T03:13:02;10.00;99.90
28532;DHT22;15738;44.860;10.066;2023-04-01T03:15:48;10.10;99.90
28532;DHT22;15738;44.860;10.066;2023-04-01T03:18:33;10.10;99.90
28532;DHT22;15738;44.860;10.066;2023-04-01T03:21:21;10.10;99.90
28532;DHT22;15738;44.860;10.066;2023-04-01T03:24:07;10.10;99.90
28532;DHT22;15738;44.860;10.066;2023-04-01T03:26:53;10.10;99.90
28532;DHT22;15738;44.860;10.066;2023-04-01T03:29:39;10.10;99.90
28532;DHT22;15738;44.860;10.066;2023-04-01T03:32:25;10.10;99.90
28532;DHT22;15738;44.860;10.066;2023-04-01T03:35:12;10.00;99.90
28532;DHT22;15738;44.860;10.066;2023-04-01T03:37:58;10.00;99.90
28532;DHT22;15738;44.860;10.066;2023-04-01T03:40:44;9.90;99.90
28532;DHT22;15738;44.860;10.066;2023-04-01T03:43:30;9.90;99.90
28532;DHT22;15738;44.860;10.066;2023-04-01T03:46:17;9.80;99.90
28532;DHT22;15738;44.860;10.066;2023-04-01T03:49:06;9.80;99.90
28532;DHT22;15738;44.860;10.066;2023-04-01T03:51:56;9.80;99.90
28532;DHT22;15738;44.860;10.066;2023-04-01T03:54:42;9.70;99.90
28532;DHT22;15738;44.860;10.066;2023-04-01T03:57:30;9.70;99.90
28532;DHT22;15738;44.860;10.066;2023-04-01T04:00:21;9.80;99.90
28532;DHT22;15738;44.860;10.066;2023-04-01T04:03:12;9.70;99.90
28532;DHT22;15738;44.860;10.066;2023-04-01T04:05:57;9.80;99.90
28532;DHT22;15738;44.860;10.066;2023-04-01T04:08:43;9.70;99.90
28532;DHT22;15738;44.860;10.066;2023-04-01T04:11:30;9.70;99.90
28532;DHT22;15738;44.860;10.066;2023-04-01T04:14:16;9.60;99.90
28532;DHT22;15738;44.860;10.066;2023-04-01T04:17:03;9.50;99.90
28532;DHT22;15738;44.860;10.066;2023-04-01T04:19:49;9.50;99.90
28532;DHT22;15738;44.860;10.066;2023-04-01T04:22:34;9.40;99.90
28532;DHT22;15738;44.860;10.066;2023-04-01T04:25:22;9.40;99.90
28532;DHT22;15738;44.860;10.066;2023-04-01T04:28:08;9.40;99.90
28532;DHT22;15738;44.860;10.066;2023-04-01T04:30:55;9.30;99.90
28532;DHT22;15738;44.860;10.066;2023-04-01T04:33:41;9.30;99.90
28532;DHT22;15738;44.860;10.066;2023-04-01T04:36:27;9.30;99.90
28532;DHT22;15738;44.860;10.066;2023-04-01T04:39:12;9.20;99.90
28532;DHT22;15738;44.860;10.066;2023-04-01T04:42:00;9.20;99.90
28532;DHT22;15738;44.860;10.066;2023-04-01T04:44:46;9.20;99.90
28532;DHT22;15738;44.860;10.066;2023-04-01T04:47:32;9.00;99.90
28532;DHT22;15738;44.860;10.066;2023-04-01T04:50:18;9.10;99.90
28532;DHT22;15738;44.860;10.066;2023-04-01T04:53:04;9.00;99.90
28532;DHT22;15738;44.860;10.066;2023-04-01T04:55:50;9.00;99.90
28532;DHT22;15738;44.860;10.066;2023-04-01T04:59:15;9.00;99.90
28532;DHT22;15738;44.860;10.066;2023-04-01T05:02:10;9.00;99.90
28532;DHT22;15738;44.860;10.066;2023-04-01T05:04:56;9.00;99.90
28532;DHT22;15738;44.860;10.066;2023-04-01T05:07:41;9.00;99.90
28532;DHT22;15738;44.860;10.066;2023-04-01T05:10:27;8.90;99.90
28532;DHT22;15738;44.860;10.066;2023-04-01T05:13:13;8.80;99.90
28532;DHT22;15738;44.860;10.066;2023-04-01T05:15:59;8.70;99.90
28532;DHT22;15738;44.860;10.066;2023-04-01T05:18:45;8.70;99.90
28532;DHT22;15738;44.860;10.066;2023-04-01T05:21:31;8.60;99.90
28532;DHT22;15738;44.860;10.066;2023-04-01T05:24:17;8.40;99.90
28532;DHT22;15738;44.860;10.066;2023-04-01T05:27:04;8.50;99.90
28532;DHT22;15738;44.860;10.066;2023-04-01T05:29:50;8.50;99.90
28532;DHT22;15738;44.860;10.066;2023-04-01T05:32:54;8.70;99.90
28532;DHT22;15738;44.860;10.066;2023-04-01T05:35:40;8.90;99.90
28532;DHT22;15738;44.860;10.066;2023-04-01T05:38:26;9.00;99.90
28532;DHT22;15738;44.860;10.066;2023-04-01T05:41:12;9.20;99.90
28532;DHT22;15738;44.860;10.066;2023-04-01T05:44:01;9.40;99.90
28532;DHT22;15738;44.860;10.066;2023-04-01T05:47:10;9.70;99.90
28532;DHT22;15738;44.860;10.066;2023-04-01T05:49:56;10.20;99.90
28532;DHT22;15738;44.860;10.066;2023-04-01T05:52:42;10.40;99.90
28532;DHT22;15738;44.860;10.066;2023-04-01T05:55:28;10.90;99.90
28532;DHT22;15738;44.860;10.066;2023-04-01T05:58:14;11.30;99.90
28532;DHT22;15738;44.860;10.066;2023-04-01T06:01:03;11.50;99.90
28532;DHT22;15738;44.860;10.066;2023-04-01T06:03:57;12.30;99.90
28532;DHT22;15738;44.860;10.066;2023-04-01T06:06:44;13.40;99.90
28532;DHT22;15738;44.860;10.066;2023-04-01T06:09:30;14.50;99.90
28532;DHT22;15738;44.860;10.066;2023-04-01T06:12:20;15.60;99.90
28532;DHT22;15738;44.860;10.066;2023-04-01T06:32:57;17.50;99.90
28532;DHT22;15738;44.860;10.066;2023-04-01T06:41:53;17.00;99.90
28532;DHT22;15738;44.860;10.066;2023-04-01T06:54:21;17.00;99.90
28532;DHT22;15738;44.860;10.066;2023-04-01T07:00:29;17.10;99.90
28532;DHT22;15738;44.860;10.066;2023-04-01T07:06:23;17.20;99.90
28532;DHT22;15738;44.860;10.066;2023-04-01T07:09:13;17.20;99.90
28532;DHT22;15738;44.860;10.066;2023-04-01T07:15:51;17.10;99.90
28532;DHT22;15738;44.860;10.066;2023-04-01T07:19:03;17.20;99.90
28532;DHT22;15738;44.860;10.066;2023-04-01T07:22:32;17.30;99.90
28532;DHT22;15738;44.860;10.066;2023-04-01T07:25:37;17.40;99.90
28532;DHT22;15738;44.860;10.066;2023-04-01T07:28:58;17.50;99.90
28532;DHT22;15738;44.860;10.066;2023-04-01T07:40:30;18.30;99.90
28532;DHT22;15738;44.860;10.066;2023-04-01T07:43:25;18.40;99.90
28532;DHT22;15738;44.860;10.066;2023-04-01T07:52:18;18.60;99.90
28532;DHT22;15738;44.860;10.066;2023-04-01T07:55:39;18.60;99.90
28532;DHT22;15738;44.860;10.066;2023-04-01T08:07:12;19.40;99.90
28532;DHT22;15738;44.860;10.066;2023-04-01T08:10:19;19.40;99.90
28532;DHT22;15738;44.860;10.066;2023-04-01T08:16:50;19.00;99.90
28532;DHT22;15738;44.860;10.066;2023-04-01T08:22:57;19.30;99.90
28532;DHT22;15738;44.860;10.066;2023-04-01T08:31:39;20.10;99.90
28532;DHT22;15738;44.860;10.066;2023-04-01T08:34:31;20.30;99.90
28532;DHT22;15738;44.860;10.066;2023-04-01T08:37:21;20.50;99.90
28532;DHT22;15738;44.860;10.066;2023-04-01T09:01:42;22.10;99.90
28532;DHT22;15738;44.860;10.066;2023-04-01T09:05:15;22.20;99.90
28532;DHT22;15738;44.860;10.066;2023-04-01T09:08:12;22.40;99.90
28532;DHT22;15738;44.860;10.066;2023-04-01T09:44:15;22.20;99.90
28532;DHT22;15738;44.860;10.066;2023-04-01T09:50:31;22.10;94.00
28532;DHT22;15738;44.860;10.066;2023-04-01T09:56:19;22.30;93.70
28532;DHT22;15738;44.860;10.066;2023-04-01T09:59:24;22.20;94.50
28532;DHT22;15738;44.860;10.066;2023-04-01T10:06:11;22.30;92.20
28532;DHT22;15738;44.860;10.066;2023-04-01T10:14:52;22.40;91.40
28532;DHT22;15738;44.860;10.066;2023-04-01T10:41:55;22.30;91.40
28532;DHT22;15738;44.860;10.066;2023-04-01T10:57:45;22.30;90.10
28532;DHT22;15738;44.860;10.066;2023-04-01T11:04:30;22.30;90.50
28532;DHT22;15738;44.860;10.066;2023-04-01T11:22:45;22.40;87.30
28532;DHT22;15738;44.860;10.066;2023-04-01T11:26:17;22.40;87.80
28532;DHT22;15738;44.860;10.066;2023-04-01T11:32:19;22.50;82.00
28532;DHT22;15738;44.860;10.066;2023-04-01T11:44:26;22.60;88.00
28532;DHT22;15738;44.860;10.066;2023-04-01T11:53:22;22.60;82.70
28532;DHT22;15738;44.860;10.066;2023-04-01T12:01:54;22.70;83.10
28532;DHT22;15738;44.860;10.066;2023-04-01T12:24:49;22.70;81.80
28532;DHT22;15738;44.860;10.066;2023-04-01T12:33:18;22.70;83.60
28532;DHT22;15738;44.860;10.066;2023-04-01T12:44:48;22.70;84.50
28532;DHT22;15738;44.860;10.066;2023-04-01T12:47:52;22.70;83.70
28532;DHT22;15738;44.860;10.066;2023-04-01T12:53:34;22.70;85.10
28532;DHT22;15738;44.860;10.066;2023-04-01T13:08:05;22.50;85.60
28532;DHT22;15738;44.860;10.066;2023-04-01T13:20:02;22.50;84.40
28532;DHT22;15738;44.860;10.066;2023-04-01T13:25:58;22.50;87.00
28532;DHT22;15738;44.860;10.066;2023-04-01T13:29:01;22.50;87.80
28532;DHT22;15738;44.860;10.066;2023-04-01T14:01:18;22.50;85.00
28532;DHT22;15738;44.860;10.066;2023-04-01T14:06:59;22.60;85.30
28532;DHT22;15738;44.860;10.066;2023-04-01T14:18:30;22.40;82.30
28532;DHT22;15738;44.860;10.066;2023-04-01T14:33:18;22.30;84.30
28532;DHT22;15738;44.860;10.066;2023-04-01T14:48:30;22.10;81.80
28532;DHT22;15738;44.860;10.066;2023-04-01T14:51:36;22.10;82.90
28532;DHT22;15738;44.860;10.066;2023-04-01T14:54:30;22.10;85.60
28532;DHT22;15738;44.860;10.066;2023-04-01T14:57:24;22.10;84.80
28532;DHT22;15738;44.860;10.066;2023-04-01T15:00:15;22.10;84.60
28532;DHT22;15738;44.860;10.066;2023-04-01T15:03:04;22.00;85.50
28532;DHT22;15738;44.860;10.066;2023-04-01T15:35:43;21.70;86.70
28532;DHT22;15738;44.860;10.066;2023-04-01T15:38:33;21.60;86.70
28532;DHT22;15738;44.860;10.066;2023-04-01T15:41:24;21.60;86.40
28532;DHT22;15738;44.860;10.066;2023-04-01T15:44:27;21.60;87.90
28532;DHT22;15738;44.860;10.066;2023-04-01T15:53:20;21.50;89.30
28532;DHT22;15738;44.860;10.066;2023-04-01T16:01:46;21.30;87.30
28532;DHT22;15738;44.860;10.066;2023-04-01T16:10:26;21.10;89.30
28532;DHT22;15738;44.860;10.066;2023-04-01T16:30:44;20.70;90.00
28532;DHT22;15738;44.860;10.066;2023-04-01T16:33:49;20.70;90.00
28532;DHT22;15738;44.860;10.066;2023-04-01T16:36:47;20.60;90.70
28532;DHT22;15738;44.860;10.066;2023-04-01T16:39:53;20.60;90.20
28532;DHT22;15738;44.860;10.066;2023-04-01T16:42:53;20.60;90.10
28532;DHT22;15738;44.860;10.066;2023-04-01T16:45:51;20.50;90.10
28532;DHT22;15738;44.860;10.066;2023-04-01T16:54:59;20.30;90.20
28532;DHT22;15738;44.860;10.066;2023-04-01T16:57:51;20.30;90.30
28532;DHT22;15738;44.860;10.066;2023-04-01T17:00:38;20.20;90.80
28532;DHT22;15738;44.860;10.066;2023-04-01T17:03:27;20.00;91.50
28532;DHT22;15738;44.860;10.066;2023-04-01T17:09:21;19.80;93.20
28532;DHT22;15738;44.860;10.066;2023-04-01T17:15:38;19.50;93.50
28532;DHT22;15738;44.860;10.066;2023-04-01T17:21:18;19.20;92.60
28532;DHT22;15738;44.860;10.066;2023-04-01T17:24:26;19.10;92.30
28532;DHT22;15738;44.860;10.066;2023-04-01T17:27:29;19.00;92.20
28532;DHT22;15738;44.860;10.066;2023-04-01T17:33:24;18.80;91.80
28532;DHT22;15738;44.860;10.066;2023-04-01T17:42:28;18.50;91.90
28532;DHT22;15738;44.860;10.066;2023-04-01T17:45:21;18.50;91.80
28532;DHT22;15738;44.860;10.066;2023-04-01T18:02:27;17.90;92.70
28532;DHT22;15738;44.860;10.066;2023-04-01T18:05:22;17.80;93.30
28532;DHT22;15738;44.860;10.066;2023-04-01T18:08:14;17.70;93.00
28532;DHT22;15738;44.860;10.066;2023-04-01T18:11:50;17.60;93.60
28532;DHT22;15738;44.860;10.066;2023-04-01T18:22:36;17.50;93.30
28532;DHT22;15738;44.860;10.066;2023-04-01T18:25:38;17.40;93.40
28532;DHT22;15738;44.860;10.066;2023-04-01T18:28:38;17.30;93.70
28532;DHT22;15738;44.860;10.066;2023-04-01T18:31:26;17.30;93.90
28532;DHT22;15738;44.860;10.066;2023-04-01T18:34:20;17.20;94.00
28532;DHT22;15738;44.860;10.066;2023-04-01T18:37:21;17.20;93.90
28532;DHT22;15738;44.860;10.066;2023-04-01T18:40:27;17.10;94.40
28532;DHT22;15738;44.860;10.066;2023-04-01T18:43:16;17.00;94.40
28532;DHT22;15738;44.860;10.066;2023-04-01T18:48:52;16.90;94.50
28532;DHT22;15738;44.860;10.066;2023-04-01T18:54:40;16.80;94.50
28532;DHT22;15738;44.860;10.066;2023-04-01T18:57:51;16.80;94.30
28532;DHT22;15738;44.860;10.066;2023-04-01T19:00:36;16.80;93.80
28532;DHT22;15738;44.860;10.066;2023-04-01T19:06:35;16.90;93.80
28532;DHT22;15738;44.860;10.066;2023-04-01T19:18:08;16.80;94.20
28532;DHT22;15738;44.860;10.066;2023-04-01T19:21:01;16.70;94.40
28532;DHT22;15738;44.860;10.066;2023-04-01T19:29:56;16.60;94.90
28532;DHT22;15738;44.860;10.066;2023-04-01T19:32:47;16.50;95.30
28532;DHT22;15738;44.860;10.066;2023-04-01T19:35:41;16.40;95.70
28532;DHT22;15738;44.860;10.066;2023-04-01T19:38:47;16.40;95.50
28532;DHT22;15738;44.860;10.066;2023-04-01T19:44:38;16.30;95.50
28532;DHT22;15738;44.860;10.066;2023-04-01T19:53:17;16.30;96.00
28532;DHT22;15738;44.860;10.066;2023-04-01T19:56:12;16.30;96.20
28532;DHT22;15738;44.860;10.066;2023-04-01T20:04:53;16.20;96.50
28532;DHT22;15738;44.860;10.066;2023-04-01T20:07:43;16.20;96.70
28532;DHT22;15738;44.860;10.066;2023-04-01T20:10:52;16.20;96.90
28532;DHT22;15738;44.860;10.066;2023-04-01T20:13:52;16.20;97.00
28532;DHT22;15738;44.860;10.066;2023-04-01T20:33:57;16.20;96.70
28532;DHT22;15738;44.860;10.066;2023-04-01T20:40:02;16.20;96.40
28532;DHT22;15738;44.860;10.066;2023-04-01T20:57:53;16.10;96.80
28532;DHT22;15738;44.860;10.066;2023-04-01T21:13:12;15.80;97.70
28532;DHT22;15738;44.860;10.066;2023-04-01T21:18:22;15.70;97.70
28532;DHT22;15738;44.860;10.066;2023-04-01T21:33:16;15.70;97.60
28532;DHT22;15738;44.860;10.066;2023-04-01T21:45:19;15.80;97.00
28532;DHT22;15738;44.860;10.066;2023-04-01T21:48:15;15.90;96.90
28532;DHT22;15738;44.860;10.066;2023-04-01T22:00:06;15.90;97.30
28532;DHT22;15738;44.860;10.066;2023-04-01T22:05:56;15.90;97.60
28532;DHT22;15738;44.860;10.066;2023-04-01T22:11:36;15.90;97.90
28532;DHT22;15738;44.860;10.066;2023-04-01T22:28:55;15.70;97.70
28532;DHT22;15738;44.860;10.066;2023-04-01T22:34:33;15.60;97.60
28532;DHT22;15738;44.860;10.066;2023-04-01T22:40:24;15.60;97.90
28532;DHT22;15738;44.860;10.066;2023-04-01T22:43:12;15.50;97.90
28532;DHT22;15738;44.860;10.066;2023-04-01T22:46:08;15.40;97.90
28532;DHT22;15738;44.860;10.066;2023-04-01T22:52:03;15.30;97.90
28532;DHT22;15738;44.860;10.066;2023-04-01T22:55:00;15.40;97.90
28532;DHT22;15738;44.860;10.066;2023-04-01T23:00:42;15.40;97.40
28532;DHT22;15738;44.860;10.066;2023-04-01T23:03:29;15.40;97.30
28532;DHT22;15738;44.860;10.066;2023-04-01T23:06:20;15.40;96.90
28532;DHT22;15738;44.860;10.066;2023-04-01T23:12:00;15.00;98.20
28532;DHT22;15738;44.860;10.066;2023-04-01T23:14:58;14.90;98.70
28532;DHT22;15738;44.860;10.066;2023-04-01T23:21:16;14.60;99.10
28532;DHT22;15738;44.860;10.066;2023-04-01T23:27:19;14.40;99.20
28532;DHT22;15738;44.860;10.066;2023-04-01T23:29:43;14.30;99.40
28532;DHT22;15738;44.860;10.066;2023-04-01T23:32:29;14.10;99.60
28532;DHT22;15738;44.860;10.066;2023-04-01T23:35:15;13.90;99.90
28532;DHT22;15738;44.860;10.066;2023-04-01T23:38:02;13.70;99.90
28532;DHT22;15738;44.860;10.066;2023-04-01T23:40:49;13.50;99.90
28532;DHT22;15738;44.860;10.066;2023-04-01T23:43:39;13.40;99.90
28532;DHT22;15738;44.860;10.066;2023-04-01T23:46:26;13.40;99.90
28532;DHT22;15738;44.860;10.066;2023-04-01T23:52:46;13.30;99.90
28532;DHT22;15738;44.860;10.066;2023-04-01T23:55:32;13.20;99.90
28532;DHT22;15738;44.860;10.066;2023-04-01T23:58:23;13.30;99.90
